createdAt,value
2022-09-17T00:00:52.243Z,1.65
2022-09-17T00:03:18.725Z,0.77
2022-09-17T00:05:45.162Z,1.73
2022-09-17T00:08:14.612Z,1.13
2022-09-17T00:10:42.192Z,1.25
2022-09-17T00:13:08.891Z,0.98
2022-09-17T00:15:44.934Z,3.92
2022-09-17T00:18:11.869Z,0.77
2022-09-17T00:20:42.666Z,1.65
2022-09-17T00:23:09.607Z,1.58
2022-09-17T00:25:44.619Z,1.20
2022-09-17T00:28:14.572Z,1.20
2022-09-17T00:30:44.649Z,0.90
2022-09-17T00:33:12.284Z,1.48
2022-09-17T00:35:38.762Z,1.08
2022-09-17T00:38:05.228Z,1.77
2022-09-17T00:40:31.718Z,1.10
2022-09-17T00:42:58.227Z,0.60
2022-09-17T00:45:24.761Z,1.23
2022-09-17T00:47:59.403Z,0.38
2022-09-17T00:50:35.099Z,1.52
2022-09-17T00:53:05.418Z,1.42
2022-09-17T00:55:36.897Z,1.15
2022-09-17T00:58:04.296Z,0.95
2022-09-17T01:00:31.105Z,0.65
2022-09-17T01:02:58.228Z,1.67
2022-09-17T01:05:31.275Z,0.85
2022-09-17T01:08:08.675Z,0.82
2022-09-17T01:11:00.544Z,0.85
2022-09-17T01:13:48.294Z,1.20
2022-09-17T01:16:30.521Z,1.13
2022-09-17T01:19:31.092Z,1.63
2022-09-17T01:22:03.004Z,1.95
2022-09-17T01:24:48.872Z,1.00
2022-09-17T01:27:18.321Z,1.23
2022-09-17T01:30:06.636Z,1.02
2022-09-17T01:32:47.575Z,1.42
2022-09-17T01:35:21.249Z,1.65
2022-09-17T01:38:10.737Z,0.95
2022-09-17T01:41:06.623Z,0.95
2022-09-17T01:43:35.927Z,1.50
2022-09-17T01:46:20.300Z,0.77
2022-09-17T01:51:18.926Z,0.75
2022-09-17T01:54:05.294Z,0.80
2022-09-17T01:56:36.108Z,1.23
2022-09-17T01:59:36.954Z,2.30
2022-09-17T02:02:07.657Z,0.63
2022-09-17T02:04:37.030Z,1.35
2022-09-17T02:07:06.177Z,0.88
2022-09-17T02:09:41.820Z,0.90
2022-09-17T02:12:10.802Z,1.58
2022-09-17T02:14:43.731Z,1.63
2022-09-17T02:17:32.498Z,1.42
2022-09-17T02:19:58.934Z,1.55
2022-09-17T02:22:35.240Z,1.67
2022-09-17T02:25:22.926Z,1.45
2022-09-17T02:27:58.529Z,1.65
2022-09-17T02:30:25.020Z,3.03
2022-09-17T02:32:51.544Z,1.63
2022-09-17T02:35:18.066Z,1.67
2022-09-17T02:37:44.609Z,0.85
2022-09-17T02:40:12.240Z,1.02
2022-09-17T02:42:54.242Z,1.73
2022-09-17T02:45:25.464Z,1.15
2022-09-17T02:48:09.764Z,1.98
2022-09-17T02:51:05.173Z,1.10
2022-09-17T02:53:48.124Z,1.45
2022-09-17T02:56:54.947Z,1.20
2022-09-17T02:59:25.577Z,1.98
2022-09-17T03:02:17.664Z,0.88
2022-09-17T03:04:46.807Z,1.23
2022-09-17T03:07:13.268Z,1.23
2022-09-17T03:09:40.203Z,1.35
2022-09-17T03:12:06.720Z,2.03
2022-09-17T03:14:33.162Z,1.15
2022-09-17T03:16:59.611Z,1.88
2022-09-17T03:19:26.399Z,1.17
2022-09-17T03:21:52.836Z,1.77
2022-09-17T03:24:19.286Z,1.33
2022-09-17T03:26:47.439Z,2.15
2022-09-17T03:29:13.889Z,1.65
2022-09-17T03:31:40.697Z,1.98
2022-09-17T03:34:07.276Z,1.95
2022-09-17T03:36:33.871Z,2.05
2022-09-17T03:39:00.870Z,1.42
2022-09-17T03:41:27.332Z,3.38
2022-09-17T03:43:53.902Z,2.47
2022-09-17T03:46:20.411Z,2.47
2022-09-17T03:48:46.920Z,2.60
2022-09-17T03:51:13.423Z,2.28
2022-09-17T03:53:39.902Z,1.60
2022-09-17T03:56:06.730Z,1.67
2022-09-17T03:58:33.314Z,2.10
2022-09-17T04:00:59.778Z,1.88
2022-09-17T04:03:29.082Z,1.50
2022-09-17T04:05:55.656Z,1.17
2022-09-17T04:08:22.186Z,3.58
2022-09-17T04:10:48.705Z,1.98
2022-09-17T04:13:15.924Z,2.22
2022-09-17T04:15:42.484Z,2.38
2022-09-17T04:18:08.977Z,2.10
2022-09-17T04:20:35.418Z,2.38
2022-09-17T04:23:01.916Z,2.38
2022-09-17T04:25:28.368Z,1.52
2022-09-17T04:27:54.838Z,2.42
2022-09-17T04:30:21.309Z,2.03
2022-09-17T04:32:47.810Z,1.48
2022-09-17T04:35:14.310Z,2.03
2022-09-17T04:37:40.775Z,2.08
2022-09-17T04:40:08.337Z,4.07
2022-09-17T04:42:34.939Z,1.75
2022-09-17T04:45:01.387Z,1.05
2022-09-17T04:47:27.848Z,2.03
2022-09-17T04:49:54.300Z,2.33
2022-09-17T04:52:20.761Z,1.98
2022-09-17T04:54:47.217Z,1.85
2022-09-17T04:57:13.663Z,2.28
2022-09-17T04:59:40.109Z,3.28
2022-09-17T05:02:06.617Z,2.95
2022-09-17T05:04:33.099Z,3.17
2022-09-17T05:07:00.243Z,2.58
2022-09-17T05:09:27.007Z,2.03
2022-09-17T05:11:53.449Z,4.07
2022-09-17T05:14:19.903Z,1.73
2022-09-17T05:16:46.827Z,3.45
2022-09-17T05:19:13.602Z,1.83
2022-09-17T05:21:40.062Z,2.85
2022-09-17T05:24:06.561Z,3.17
2022-09-17T05:26:33.028Z,3.08
2022-09-17T05:28:59.615Z,2.03
2022-09-17T05:31:26.174Z,1.80
2022-09-17T05:33:52.659Z,2.45
2022-09-17T05:36:19.100Z,3.20
2022-09-17T05:38:45.557Z,1.85
2022-09-17T05:41:11.998Z,2.33
2022-09-17T05:43:38.444Z,3.40
2022-09-17T05:46:05.724Z,2.53
2022-09-17T05:48:32.235Z,3.90
2022-09-17T05:50:58.710Z,2.10
2022-09-17T05:53:25.167Z,3.28
2022-09-17T05:55:51.630Z,1.52
2022-09-17T05:58:19.122Z,2.45
2022-09-17T06:00:46.558Z,3.17
2022-09-17T06:03:13.741Z,1.50
2022-09-17T06:05:40.607Z,2.58
2022-09-17T06:08:07.234Z,2.88
2022-09-17T06:10:37.296Z,2.50
2022-09-17T06:13:04.001Z,5.38
2022-09-17T06:15:30.599Z,5.20
2022-09-17T06:17:57.077Z,5.95
2022-09-17T06:20:23.527Z,3.08
2022-09-17T06:22:49.991Z,2.83
2022-09-17T06:25:16.520Z,4.88
2022-09-17T06:27:43.157Z,5.47
2022-09-17T06:30:09.756Z,5.18
2022-09-17T06:32:36.309Z,6.75
2022-09-17T06:35:03.199Z,9.48
2022-09-17T06:37:30.596Z,8.68
2022-09-17T06:39:57.179Z,7.13
2022-09-17T06:42:23.852Z,6.45
2022-09-17T06:44:50.325Z,6.53
2022-09-17T06:47:17.067Z,6.43
2022-09-17T06:49:43.554Z,7.13
2022-09-17T06:52:10.175Z,8.90
2022-09-17T06:54:36.662Z,7.75
2022-09-17T06:57:03.136Z,5.65
2022-09-17T06:59:29.600Z,10.43
2022-09-17T07:01:56.501Z,7.22
2022-09-17T07:04:23.014Z,11.82
2022-09-17T07:06:49.780Z,7.68
2022-09-17T07:09:16.495Z,9.13
2022-09-17T07:11:43.104Z,11.07
2022-09-17T07:14:09.547Z,5.30
2022-09-17T07:16:36.918Z,9.57
2022-09-17T07:19:03.655Z,11.30
2022-09-17T07:21:30.120Z,5.82
2022-09-17T07:23:56.572Z,6.63
2022-09-17T07:26:23.019Z,6.15
2022-09-17T07:28:49.508Z,5.38
2022-09-17T07:31:16.927Z,6.90
2022-09-17T07:33:43.656Z,9.52
2022-09-17T07:36:14.818Z,6.80
2022-09-17T07:38:41.285Z,4.75
2022-09-17T07:41:14.789Z,5.10
2022-09-17T07:43:41.407Z,4.60
2022-09-17T07:46:08.278Z,4.97
2022-09-17T07:48:34.981Z,7.88
2022-09-17T07:51:01.476Z,8.07
2022-09-17T07:53:28.072Z,6.88
2022-09-17T07:55:55.536Z,7.18
2022-09-17T07:58:29.516Z,5.53
2022-09-17T08:01:11.974Z,7.30
2022-09-17T08:03:39.502Z,7.82
2022-09-17T08:06:07.892Z,9.13
2022-09-17T08:08:35.787Z,6.15
2022-09-17T08:11:09.868Z,5.72
2022-09-17T08:16:04.561Z,8.80
2022-09-17T08:18:31.692Z,6.68
2022-09-17T08:21:01.972Z,7.82
2022-09-17T08:23:28.480Z,7.00
2022-09-17T08:25:59.247Z,5.72
2022-09-17T08:28:26.547Z,7.97
2022-09-17T08:30:53.395Z,7.85
2022-09-17T08:33:19.916Z,8.43
2022-09-17T08:35:59.372Z,9.35
2022-09-17T08:38:30.601Z,11.07
2022-09-17T08:41:14.617Z,8.55
2022-09-17T08:43:58.498Z,10.88
2022-09-17T08:46:25.261Z,7.40
2022-09-17T08:49:11.888Z,7.38
2022-09-17T08:52:03.317Z,6.43
2022-09-17T08:54:48.408Z,6.60
2022-09-17T08:57:39.547Z,6.13
2022-09-17T09:00:14.893Z,7.32
2022-09-17T09:02:56.280Z,6.18
2022-09-17T09:05:33.422Z,11.55
2022-09-17T09:08:11.039Z,7.53
2022-09-17T09:10:46.661Z,6.57
2022-09-17T09:13:14.700Z,6.72
2022-09-17T09:15:46.248Z,7.70
2022-09-17T09:18:18.097Z,8.55
2022-09-17T09:20:55.642Z,8.43
2022-09-17T09:23:52.480Z,9.27
2022-09-17T09:26:20.667Z,8.25
2022-09-17T09:28:49.806Z,12.27
2022-09-17T09:31:28.756Z,7.75
2022-09-17T09:33:55.226Z,6.55
2022-09-17T09:36:22.056Z,10.80
2022-09-17T09:39:07.334Z,9.38
2022-09-17T09:42:09.458Z,10.48
2022-09-17T09:44:35.903Z,9.80
2022-09-17T09:47:29.912Z,9.80
2022-09-17T09:50:08.825Z,10.82
2022-09-17T09:53:01.761Z,10.75
2022-09-17T09:56:03.331Z,11.68
2022-09-17T09:58:36.826Z,14.55
2022-09-17T10:01:08.311Z,9.23
2022-09-17T10:03:34.773Z,9.13
2022-09-17T10:06:02.979Z,7.47
2022-09-17T10:08:31.550Z,8.32
2022-09-17T10:11:04.592Z,8.23
2022-09-17T10:13:32.816Z,14.68
2022-09-17T10:16:18.421Z,7.75
2022-09-17T10:18:45.769Z,8.95
2022-09-17T10:21:31.703Z,9.63
2022-09-17T10:23:58.403Z,10.35
2022-09-17T10:26:26.507Z,10.82
2022-09-17T10:28:54.159Z,13.10
2022-09-17T10:31:20.670Z,11.48
2022-09-17T10:34:01.423Z,19.60
2022-09-17T10:36:44.332Z,11.00
2022-09-17T10:39:44.189Z,13.85
2022-09-17T10:42:15.079Z,12.07
2022-09-17T10:44:54.519Z,12.35
2022-09-17T10:47:31.536Z,21.60
2022-09-17T10:50:17.919Z,9.88
2022-09-17T10:52:55.771Z,8.40
2022-09-17T10:55:32.487Z,6.60
2022-09-17T10:58:08.067Z,9.50
2022-09-17T11:01:06.514Z,9.15
2022-09-17T11:03:41.918Z,8.48
2022-09-17T11:06:24.519Z,5.28
2022-09-17T11:09:12.662Z,6.95
2022-09-17T11:11:41.761Z,8.60
2022-09-17T11:14:17.593Z,4.85
2022-09-17T11:16:56.742Z,4.78
2022-09-17T11:19:45.432Z,5.20
2022-09-17T11:22:18.205Z,5.05
2022-09-17T11:24:49.901Z,4.65
2022-09-17T11:27:35.076Z,4.97
2022-09-17T11:30:19.167Z,6.55
2022-09-17T11:33:01.022Z,5.90
2022-09-17T11:35:29.824Z,6.15
2022-09-17T11:38:02.435Z,37.13
2022-09-17T11:41:08.276Z,20.45
2022-09-17T11:43:35.878Z,14.07
2022-09-17T11:46:10.823Z,8.82
2022-09-17T11:48:47.942Z,10.65
2022-09-17T11:51:30.693Z,13.57
2022-09-17T11:54:07.599Z,10.43
2022-09-17T11:56:44.931Z,10.63
2022-09-17T11:59:13.577Z,12.10
2022-09-17T12:01:58.029Z,9.93
2022-09-17T12:04:47.508Z,10.98
2022-09-17T12:07:31.684Z,9.32
2022-09-17T12:10:27.257Z,12.98
2022-09-17T12:13:07.379Z,26.08
2022-09-17T12:15:34.858Z,20.15
2022-09-17T12:18:35.863Z,15.88
2022-09-17T12:21:04.763Z,14.50
2022-09-17T12:23:41.398Z,15.82
2022-09-17T12:26:16.765Z,11.15
2022-09-17T12:28:50.940Z,11.82
2022-09-17T12:31:52.292Z,11.25
2022-09-17T12:34:44.244Z,12.20
2022-09-17T12:37:22.858Z,15.73
2022-09-17T12:40:16.777Z,12.63
2022-09-17T12:43:02.435Z,13.63
2022-09-17T12:45:32.479Z,11.82
2022-09-17T12:48:07.988Z,11.52
2022-09-17T12:50:49.573Z,15.23
2022-09-17T12:53:23.634Z,12.20
2022-09-17T12:58:40.646Z,12.80
2022-09-17T13:01:20.826Z,10.05
2022-09-17T13:04:00.508Z,8.75
2022-09-17T13:06:53.586Z,10.82
2022-09-17T13:09:38.961Z,10.75
2022-09-17T13:12:14.425Z,9.52
2022-09-17T13:14:51.531Z,10.75
2022-09-17T13:17:56.171Z,10.88
2022-09-17T13:20:34.945Z,11.00
2022-09-17T13:23:01.631Z,8.73
2022-09-17T13:25:28.108Z,11.50
2022-09-17T13:28:09.227Z,8.52
2022-09-17T13:31:08.721Z,11.32
2022-09-17T13:34:00.411Z,8.30
2022-09-17T13:36:32.891Z,9.18
2022-09-17T13:38:59.850Z,7.93
2022-09-17T13:41:26.446Z,10.00
2022-09-17T13:43:54.323Z,10.88
2022-09-17T13:46:28.097Z,7.97
2022-09-17T13:48:59.571Z,8.15
2022-09-17T13:51:32.094Z,8.45
2022-09-17T13:54:00.331Z,7.80
2022-09-17T13:56:37.844Z,5.10
2022-09-17T13:59:08.172Z,6.85
2022-09-17T14:01:56.248Z,8.10
2022-09-17T14:04:40.723Z,9.18
2022-09-17T14:07:23.487Z,8.20
2022-09-17T14:10:19.340Z,6.57
2022-09-17T14:12:52.165Z,5.28
2022-09-17T14:15:34.855Z,8.27
2022-09-17T14:18:04.216Z,5.70
2022-09-17T14:20:33.242Z,4.15
2022-09-17T14:23:00.844Z,7.18
2022-09-17T14:25:39.903Z,5.60
2022-09-17T14:28:16.333Z,4.88
2022-09-17T14:30:44.068Z,5.22
2022-09-17T14:33:18.701Z,5.65
2022-09-17T14:35:45.709Z,6.43
2022-09-17T14:38:32.542Z,5.30
2022-09-17T14:41:00.519Z,6.30
2022-09-17T14:43:52.294Z,7.57
2022-09-17T14:46:27.333Z,6.68
2022-09-17T14:48:53.843Z,6.05
2022-09-17T14:51:20.170Z,8.32
2022-09-17T14:53:47.827Z,6.18
2022-09-17T14:56:16.238Z,5.00
2022-09-17T14:58:46.015Z,9.73
2022-09-17T15:01:30.919Z,6.18
2022-09-17T15:04:12.644Z,5.40
2022-09-17T15:06:42.398Z,6.85
2022-09-17T15:09:19.383Z,4.07
2022-09-17T15:11:47.905Z,4.95
2022-09-17T15:14:28.113Z,6.03
2022-09-17T15:16:56.289Z,5.45
2022-09-17T15:19:26.200Z,5.75
2022-09-17T15:21:55.367Z,5.22
2022-09-17T15:25:06.655Z,13.00
2022-09-17T15:27:43.543Z,4.60
2022-09-17T15:30:14.192Z,8.00
2022-09-17T15:33:15.211Z,7.82
2022-09-17T15:35:41.662Z,7.30
2022-09-17T15:38:34.701Z,4.95
2022-09-17T15:41:33.870Z,3.53
2022-09-17T15:44:31.259Z,3.97
2022-09-17T15:47:39.297Z,5.40
2022-09-17T15:50:19.984Z,5.03
2022-09-17T15:52:46.791Z,4.97
2022-09-17T15:55:29.426Z,6.93
2022-09-17T15:57:57.743Z,7.63
2022-09-17T16:00:24.791Z,4.78
2022-09-17T16:02:51.430Z,23.35
2022-09-17T16:05:17.805Z,76.18
2022-09-17T16:07:47.184Z,124.50
2022-09-17T16:10:14.231Z,125.22
2022-09-17T16:12:40.727Z,133.10
2022-09-17T16:15:07.686Z,126.20
2022-09-17T16:17:47.602Z,123.75
2022-09-17T16:20:16.979Z,121.68
2022-09-17T16:22:43.893Z,58.30
2022-09-17T16:25:11.178Z,80.85
2022-09-17T16:27:44.215Z,88.93
2022-09-17T16:30:14.304Z,91.60
2022-09-17T16:32:40.769Z,104.80
2022-09-17T16:35:07.465Z,95.03
2022-09-17T16:37:33.911Z,94.38
2022-09-17T16:40:00.995Z,91.47
2022-09-17T16:42:31.076Z,91.13
2022-09-17T16:44:58.759Z,82.63
2022-09-17T16:47:25.293Z,87.85
2022-09-17T16:49:51.828Z,81.72
2022-09-17T16:52:18.691Z,85.30
2022-09-17T16:54:45.139Z,77.05
2022-09-17T16:57:11.590Z,78.07
2022-09-17T16:59:38.049Z,72.63
2022-09-17T17:02:04.535Z,78.03
2022-09-17T17:04:31.007Z,73.90
2022-09-17T17:06:57.450Z,75.05
2022-09-17T17:09:23.985Z,74.53
2022-09-17T17:11:51.737Z,70.55
2022-09-17T17:14:18.968Z,67.15
2022-09-17T17:16:45.420Z,69.40
2022-09-17T17:19:11.974Z,60.90
2022-09-17T17:21:38.722Z,63.88
2022-09-17T17:24:06.703Z,62.65
2022-09-17T17:26:33.852Z,59.63
2022-09-17T17:29:02.879Z,62.05
2022-09-17T17:31:39.016Z,55.40
2022-09-17T17:34:05.495Z,56.47
2022-09-17T17:36:32.059Z,58.85
2022-09-17T17:38:58.925Z,55.72
2022-09-17T17:41:27.168Z,56.38
2022-09-17T17:43:54.079Z,54.20
2022-09-17T17:46:20.852Z,56.78
2022-09-17T17:48:47.366Z,51.90
2022-09-17T17:51:13.836Z,52.20
2022-09-17T17:53:43.166Z,49.50
2022-09-17T17:56:09.716Z,52.10
2022-09-17T17:58:36.276Z,46.97
2022-09-17T18:01:16.632Z,50.15
2022-09-17T18:03:43.400Z,41.97
2022-09-17T18:06:09.904Z,42.88
2022-09-17T18:08:37.927Z,38.92
2022-09-17T18:11:04.708Z,43.42
2022-09-17T18:13:31.198Z,42.08
2022-09-17T18:15:58.708Z,42.17
2022-09-17T18:18:31.348Z,39.70
2022-09-17T18:21:00.553Z,38.25
2022-09-17T18:23:27.301Z,36.70
2022-09-17T18:25:57.630Z,32.95
2022-09-17T18:28:24.141Z,37.38
2022-09-17T18:30:50.673Z,32.22
2022-09-17T18:33:21.734Z,34.78
2022-09-17T18:35:48.233Z,31.98
2022-09-17T18:38:15.527Z,33.55
2022-09-17T18:40:42.332Z,33.72
2022-09-17T18:43:08.867Z,34.42
2022-09-17T18:45:35.569Z,33.15
2022-09-17T18:48:04.348Z,27.25
2022-09-17T18:50:30.803Z,30.73
2022-09-17T18:52:57.277Z,31.70
2022-09-17T18:55:23.758Z,29.42
2022-09-17T18:57:53.744Z,30.27
2022-09-17T19:00:20.536Z,27.83
2022-09-17T19:02:50.011Z,27.33
2022-09-17T19:05:16.913Z,24.77
2022-09-17T19:07:46.743Z,26.52
2022-09-17T19:10:14.138Z,24.55
2022-09-17T19:12:40.950Z,22.80
2022-09-17T19:15:08.884Z,23.83
2022-09-17T19:17:35.621Z,23.42
2022-09-17T19:20:03.049Z,24.45
2022-09-17T19:22:29.762Z,24.30
2022-09-17T19:24:56.244Z,24.08
2022-09-17T19:27:22.692Z,15.18
2022-09-17T19:29:49.165Z,11.43
2022-09-17T19:32:15.939Z,6.72
2022-09-17T19:34:42.603Z,11.43
2022-09-17T19:37:09.084Z,8.98
2022-09-17T19:39:35.583Z,6.97
2022-09-17T19:42:02.040Z,8.18
2022-09-17T19:44:29.038Z,11.55
2022-09-17T19:46:55.902Z,8.13
2022-09-17T19:49:22.475Z,8.68
2022-09-17T19:51:49.225Z,9.90
2022-09-17T19:54:15.732Z,8.57
2022-09-17T19:56:42.175Z,10.90
2022-09-17T19:59:08.626Z,6.75
2022-09-17T20:01:35.158Z,9.85
2022-09-17T20:04:01.852Z,10.63
2022-09-17T20:06:28.395Z,7.38
2022-09-17T20:08:55.178Z,6.07
2022-09-17T20:11:23.532Z,9.13
2022-09-17T20:13:50.151Z,8.63
2022-09-17T20:16:20.433Z,8.18
2022-09-17T20:18:47.839Z,8.85
2022-09-17T20:21:16.342Z,10.13
2022-09-17T20:23:43.035Z,6.68
2022-09-17T20:26:09.501Z,6.90
2022-09-17T20:28:35.985Z,8.25
2022-09-17T20:31:03.754Z,6.45
2022-09-17T20:33:30.320Z,7.45
2022-09-17T20:36:18.435Z,7.45
2022-09-17T20:39:10.719Z,6.10
2022-09-17T20:41:31.815Z,10.73
2022-09-17T20:43:58.385Z,6.85
2022-09-17T20:46:28.967Z,6.63
2022-09-17T20:48:57.382Z,6.57
2022-09-17T20:51:24.856Z,7.93
2022-09-17T20:53:51.395Z,7.15
2022-09-17T20:56:20.251Z,6.03
2022-09-17T20:58:51.759Z,7.40
2022-09-17T21:01:20.617Z,7.18
2022-09-17T21:03:50.059Z,6.22
2022-09-17T21:06:17.720Z,5.70
2022-09-17T21:08:44.656Z,6.05
2022-09-17T21:11:11.219Z,7.07
2022-09-17T21:13:37.684Z,8.98
2022-09-17T21:16:04.239Z,8.02
2022-09-17T21:18:30.770Z,12.90
2022-09-17T21:20:57.233Z,14.80
2022-09-17T21:23:24.734Z,13.80
2022-09-17T21:25:51.283Z,19.48
2022-09-17T21:28:20.402Z,18.88
2022-09-17T21:30:47.888Z,20.65
2022-09-17T21:33:21.895Z,19.98
2022-09-17T21:38:20.166Z,19.25
2022-09-17T21:40:56.999Z,22.33
2022-09-17T21:43:23.801Z,23.13
2022-09-17T21:46:12.619Z,19.67
2022-09-17T21:48:49.511Z,20.23
2022-09-17T21:51:18.090Z,19.08
2022-09-17T21:53:44.793Z,22.13
2022-09-17T21:56:15.227Z,18.58
2022-09-17T21:58:42.459Z,20.38
2022-09-17T22:01:29.032Z,17.50
2022-09-17T22:03:57.481Z,15.70
2022-09-17T22:06:25.723Z,18.33
2022-09-17T22:08:52.170Z,18.58
2022-09-17T22:11:23.195Z,16.58
2022-09-17T22:13:57.723Z,14.70
2022-09-17T22:16:24.985Z,16.38
2022-09-17T22:18:51.646Z,18.15
2022-09-17T22:21:21.013Z,18.15
2022-09-17T22:23:49.041Z,14.30
2022-09-17T22:26:15.619Z,16.23
2022-09-17T22:28:42.063Z,16.17
2022-09-17T22:31:10.347Z,15.82
2022-09-17T22:33:38.372Z,15.07
2022-09-17T22:36:06.143Z,13.50
2022-09-17T22:38:32.967Z,13.65
2022-09-17T22:41:18.762Z,13.75
2022-09-17T22:43:45.295Z,12.73
2022-09-17T22:46:17.252Z,15.35
2022-09-17T22:48:43.837Z,12.75
2022-09-17T22:51:10.345Z,18.73
2022-09-17T22:53:37.086Z,12.13
2022-09-17T22:56:04.519Z,12.93
2022-09-17T22:58:31.016Z,14.25
2022-09-17T23:00:57.554Z,12.15
2022-09-17T23:03:27.078Z,12.13
2022-09-17T23:05:58.950Z,13.50
2022-09-17T23:08:25.402Z,12.13
2022-09-17T23:10:51.851Z,12.75
2022-09-17T23:13:18.304Z,10.35
2022-09-17T23:15:44.787Z,11.50
2022-09-17T23:18:11.254Z,10.05
2022-09-17T23:20:37.722Z,8.55
2022-09-17T23:23:04.248Z,10.45
2022-09-17T23:25:30.689Z,10.00
2022-09-17T23:27:57.191Z,11.02
2022-09-17T23:30:24.262Z,11.38
2022-09-17T23:32:57.387Z,10.35
2022-09-17T23:35:23.866Z,8.20
2022-09-17T23:37:50.389Z,10.40
2022-09-17T23:40:18.124Z,9.20
2022-09-17T23:42:44.632Z,10.88
2022-09-17T23:45:11.083Z,10.13
2022-09-17T23:47:37.513Z,7.78
2022-09-17T23:50:04.195Z,8.05
2022-09-17T23:52:30.861Z,9.45
2022-09-17T23:54:58.554Z,9.13
2022-09-17T23:57:25.625Z,10.05
2022-09-17T23:59:52.125Z,8.73
